Time;durP1;ratioP1;P1;durP2;ratioP2;P2;SDS_P1;SDS_P2;PMS_P1;PMS_P2;Temp;Humidity;BMP_temperature;BMP_pressure;BME280_temperature;BME280_humidity;BME280_pressure;Samples;Min_cycle;Max_cycle;Signal;HPM_P1;HPM_P2
2024/04/06 00:02:39;;;;;;;2.78;1.30;;;;;;;17.59;67.95;100019.31;10408412;28;20049;-63
2024/04/06 00:07:40;;;;;;;4.18;1.40;;;;;;;17.63;68.28;100028.72;10410627;28;20041;-64
2024/04/06 00:12:40;;;;;;;5.65;1.40;;;;;;;17.51;69.03;100008.59;10412799;28;20158;-63
2024/04/06 00:17:40;;;;;;;2.45;1.33;;;;;;;17.57;68.28;100023.22;10404646;28;20767;-62
2024/04/06 00:22:41;;;;;;;2.75;1.42;;;;;;;17.56;68.35;100011.59;10402115;28;20059;-63
2024/04/06 00:27:41;;;;;;;2.72;1.60;;;;;;;17.38;68.75;99984.09;10412552;28;20160;-62
2024/04/06 00:32:42;;;;;;;2.58;1.10;;;;;;;17.21;68.64;99959.13;10404983;28;20048;-62
2024/04/06 00:37:43;;;;;;;1.98;0.77;;;;;;;17.52;69.17;100006.72;10406592;28;20449;-63
2024/04/06 00:42:44;;;;;;;3.22;1.33;;;;;;;17.52;69.53;100015.66;10409483;28;20040;-63
2024/04/06 00:47:45;;;;;;;2.45;1.10;;;;;;;17.54;70.23;100023.56;10416632;28;20801;-63
2024/04/06 00:52:45;;;;;;;2.63;0.98;;;;;;;17.52;69.59;100025.56;10393096;28;20033;-62
2024/04/06 00:57:46;;;;;;;3.30;1.23;;;;;;;17.45;70.30;100030.81;10404752;28;20537;-62
2024/04/06 01:02:47;;;;;;;2.83;1.73;;;;;;;17.26;71.30;100000.63;10405042;28;20455;-63
2024/04/06 01:07:47;;;;;;;2.88;1.95;;;;;;;17.41;71.43;100024.09;10403997;28;20128;-63
2024/04/06 01:12:48;;;;;;;4.05;1.60;;;;;;;17.37;71.77;100017.38;10403223;28;20103;-63
2024/04/06 01:17:51;;;;;;;2.80;1.88;;;;;;;17.37;72.31;100022.75;10403240;28;20085;-63
2024/04/06 01:22:51;;;;;;;2.45;1.40;;;;;;;17.36;72.64;100010.34;10402837;28;20140;-66
2024/04/06 01:27:52;;;;;;;2.50;1.65;;;;;;;17.31;72.79;100003.63;10407931;28;20067;-62
2024/04/06 01:32:54;;;;;;;4.22;1.70;;;;;;;17.30;73.22;100001.09;10405600;28;20060;-63
2024/04/06 01:37:54;;;;;;;3.47;1.92;;;;;;;17.29;73.75;100011.03;10408493;28;20121;-62
2024/04/06 01:42:55;;;;;;;4.00;1.88;;;;;;;17.29;74.05;99999.41;10411923;28;20045;-63
2024/04/06 01:47:56;;;;;;;1.95;1.55;;;;;;;17.21;74.36;99992.22;10399826;28;20171;-63
2024/04/06 01:52:56;;;;;;;4.40;2.25;;;;;;;17.22;74.66;100004.66;10406299;28;20052;-63
2024/04/06 01:57:57;;;;;;;5.70;2.00;;;;;;;17.21;74.88;100002.97;10404606;28;20197;-62
2024/04/06 02:02:57;;;;;;;2.63;2.10;;;;;;;17.13;75.09;99998.47;10412086;28;20055;-63
2024/04/06 02:07:58;;;;;;;4.03;1.85;;;;;;;17.03;75.49;99999.69;10408765;28;20049;-63
2024/04/06 02:12:58;;;;;;;2.95;1.88;;;;;;;16.92;76.22;99998.19;10403712;28;21257;-63
2024/04/06 02:18:00;;;;;;;3.65;2.10;;;;;;;16.79;76.52;99998.69;10364998;28;20167;-63
2024/04/06 02:23:00;;;;;;;3.67;2.08;;;;;;;16.77;77.23;100003.41;10403127;28;20156;-63
2024/04/06 02:28:01;;;;;;;2.28;1.98;;;;;;;16.74;78.07;99988.44;10404305;28;20053;-63
2024/04/06 02:33:01;;;;;;;5.28;2.35;;;;;;;16.68;78.17;99996.31;10395663;28;20061;-63
2024/04/06 02:38:02;;;;;;;3.00;2.10;;;;;;;16.57;78.75;99984.94;10387681;28;20454;-63
2024/04/06 02:43:03;;;;;;;5.55;3.10;;;;;;;16.53;79.21;99997.03;10401585;28;20049;-63
2024/04/06 02:48:04;;;;;;;3.58;2.33;;;;;;;16.39;79.16;99981.56;10396341;28;20690;-62
2024/04/06 02:53:04;;;;;;;3.70;2.70;;;;;;;16.49;79.53;100019.84;10404159;28;20132;-63
2024/04/06 02:58:05;;;;;;;3.85;2.38;;;;;;;16.46;79.93;100038.16;10404409;28;20612;-65
2024/04/06 03:03:05;;;;;;;4.57;2.45;;;;;;;16.42;80.12;100024.22;10400216;28;20057;-63
2024/04/06 03:08:06;;;;;;;3.30;2.30;;;;;;;16.37;80.30;100026.56;10392794;28;20037;-63
2024/04/06 03:13:06;;;;;;;3.83;2.30;;;;;;;16.35;80.99;100020.50;10413211;28;20053;-63
2024/04/06 03:18:07;;;;;;;4.70;2.25;;;;;;;16.13;81.30;99987.09;10413931;28;20623;-63
2024/04/06 03:23:07;;;;;;;3.03;2.13;;;;;;;16.27;80.92;100013.28;10409282;28;20428;-63
2024/04/06 03:28:07;;;;;;;5.20;2.67;;;;;;;16.17;81.29;100015.28;10414797;28;20049;-63
2024/04/06 03:33:08;;;;;;;4.43;2.20;;;;;;;16.14;81.98;100010.25;10406100;28;20417;-63
2024/04/06 03:38:09;;;;;;;4.05;2.72;;;;;;;16.10;82.01;100007.06;10396874;28;20633;-63
2024/04/06 03:43:09;;;;;;;3.65;2.45;;;;;;;16.08;82.64;100009.09;10406500;28;20045;-64
2024/04/06 03:48:09;;;;;;;4.00;2.30;;;;;;;16.02;82.73;100009.75;10404844;28;20081;-64
2024/04/06 03:53:11;;;;;;;3.05;2.53;;;;;;;16.00;83.45;100009.91;10410973;28;20041;-63
2024/04/06 03:58:12;;;;;;;4.93;2.50;;;;;;;15.98;82.78;100016.44;10395384;28;20254;-63
2024/04/06 04:03:12;;;;;;;3.85;2.53;;;;;;;15.97;83.84;100014.75;10412072;28;20047;-63
2024/04/06 04:08:13;;;;;;;3.63;2.33;;;;;;;15.93;82.27;100034.88;10412600;28;20084;-63
2024/04/06 04:13:13;;;;;;;4.75;2.95;;;;;;;15.90;80.87;100042.25;10408565;28;20041;-63
2024/04/06 04:18:14;;;;;;;4.00;1.80;;;;;;;15.78;76.98;100032.84;10389441;28;20107;-63
2024/04/06 04:23:14;;;;;;;4.50;2.45;;;;;;;15.74;75.07;100048.38;10384290;28;20084;-62
2024/04/06 04:28:15;;;;;;;4.35;1.45;;;;;;;15.52;72.35;100006.88;10407697;28;20282;-63
2024/04/06 04:33:17;;;;;;;4.60;1.35;;;;;;;15.76;71.98;100034.78;10407490;28;20609;-63
2024/04/06 04:38:18;;;;;;;3.75;1.58;;;;;;;15.77;70.49;100041.84;10406655;28;20147;-63
2024/04/06 04:43:18;;;;;;;1.65;1.42;;;;;;;15.77;70.36;100047.22;10410391;28;20053;-63
2024/04/06 04:48:19;;;;;;;2.03;1.27;;;;;;;15.76;69.97;100040.16;10413900;28;20049;-63
2024/04/06 04:53:19;;;;;;;3.08;1.30;;;;;;;15.72;69.93;100055.75;10403370;28;20056;-63
2024/04/06 04:58:21;;;;;;;1.23;0.95;;;;;;;15.73;68.76;100051.22;10417560;28;20129;-63
2024/04/06 05:03:22;;;;;;;3.90;1.30;;;;;;;15.74;68.02;100055.59;10393678;28;20404;-62
2024/04/06 05:08:24;;;;;;;2.25;1.33;;;;;;;15.71;68.53;100048.69;10409230;28;20132;-63
2024/04/06 05:13:24;;;;;;;1.75;1.00;;;;;;;15.77;68.07;100057.13;10407027;28;20135;-63
2024/04/06 05:18:25;;;;;;;2.00;1.40;;;;;;;15.77;66.85;100054.44;10413965;28;20057;-62
2024/04/06 05:23:28;;;;;;;2.65;1.30;;;;;;;15.77;66.84;100057.94;10405362;28;20045;-62
2024/04/06 05:28:28;;;;;;;5.10;1.20;;;;;;;15.80;66.83;100068.38;10407167;28;20120;-63
2024/04/06 05:33:29;;;;;;;2.13;0.98;;;;;;;15.77;66.34;100071.38;10407569;28;20971;-63
2024/04/06 05:38:29;;;;;;;1.80;0.80;;;;;;;15.80;65.07;100073.75;10407476;28;20049;-63
2024/04/06 05:43:30;;;;;;;3.80;1.23;;;;;;;15.84;64.69;100079.66;10404213;28;20056;-62
2024/04/06 05:48:31;;;;;;;3.83;1.35;;;;;;;15.90;63.61;100082.53;10410960;28;20052;-62
2024/04/06 05:53:32;;;;;;;1.80;0.63;;;;;;;15.93;62.72;100089.41;10411161;28;20191;-63
2024/04/06 05:58:32;;;;;;;1.88;1.25;;;;;;;15.83;63.11;100056.50;10421429;28;20516;-63
2024/04/06 06:03:32;;;;;;;2.60;0.93;;;;;;;16.09;61.90;100083.25;10403739;28;20037;-64
2024/04/06 06:08:33;;;;;;;2.28;1.55;;;;;;;16.22;62.83;100096.22;10408946;28;20048;-64
2024/04/06 06:13:33;;;;;;;4.78;1.27;;;;;;;16.31;61.46;100102.44;10409961;28;20541;-63
2024/04/06 06:18:34;;;;;;;2.25;1.20;;;;;;;16.44;61.29;100108.19;10408634;28;20060;-63
2024/04/06 06:23:34;;;;;;;2.92;0.90;;;;;;;16.53;61.15;100112.56;10386553;28;20063;-63
2024/04/06 06:28:35;;;;;;;1.67;1.00;;;;;;;16.54;61.14;100113.38;10384638;28;20064;-63
2024/04/06 06:33:35;;;;;;;2.15;0.80;;;;;;;16.68;60.21;100117.25;10357989;28;20069;-63
2024/04/06 06:38:35;;;;;;;2.85;0.80;;;;;;;16.81;60.78;100106.84;10379593;28;20100;-62
2024/04/06 06:43:36;;;;;;;3.22;0.70;;;;;;;16.95;59.31;100095.47;10398077;28;20426;-64
2024/04/06 06:48:36;;;;;;;2.90;0.80;;;;;;;17.11;58.05;100104.53;10388603;28;20064;-64
2024/04/06 06:53:37;;;;;;;2.05;0.60;;;;;;;17.22;56.61;100117.63;10414425;28;20055;-64
2024/04/06 06:58:37;;;;;;;1.90;0.85;;;;;;;17.28;56.52;100116.94;10411734;28;20763;-63
2024/04/06 07:03:38;;;;;;;2.08;0.82;;;;;;;17.36;56.35;100113.41;10405405;28;20136;-63
2024/04/06 07:08:42;;;;;;;3.83;0.90;;;;;;;17.53;55.46;100111.50;10406195;28;20264;-63
2024/04/06 07:13:42;;;;;;;2.22;0.80;;;;;;;17.60;55.60;100108.97;10408241;28;20132;-62
2024/04/06 07:18:43;;;;;;;3.28;1.67;;;;;;;17.64;57.42;100118.41;10405068;28;20053;-70
2024/04/06 07:23:44;;;;;;;2.75;0.88;;;;;;;17.67;53.66;100108.09;10404547;28;20056;-70
2024/04/06 07:28:44;;;;;;;3.72;1.15;;;;;;;17.67;54.07;100110.78;10414656;28;20056;-67
2024/04/06 07:33:45;;;;;;;3.10;0.63;;;;;;;17.75;56.39;100106.41;10405700;28;20049;-67
2024/04/06 07:38:45;;;;;;;1.23;0.70;;;;;;;17.80;52.86;100115.63;10411620;28;20044;-68
2024/04/06 07:43:46;;;;;;;2.22;0.68;;;;;;;17.80;52.92;100114.78;10413443;28;20093;-69
2024/04/06 07:48:46;;;;;;;2.67;0.75;;;;;;;17.91;52.51;100111.75;10382329;28;20322;-63
2024/04/06 07:53:47;;;;;;;4.68;0.82;;;;;;;17.88;51.60;100114.78;10405338;28;20601;-58
2024/04/06 07:58:47;;;;;;;2.70;0.50;;;;;;;18.01;52.68;100095.38;10365144;28;20055;-63
2024/04/06 08:03:48;;;;;;;1.27;0.50;;;;;;;18.24;51.21;100110.75;10362547;28;20041;-62
2024/04/06 08:08:48;;;;;;;2.13;0.73;;;;;;;18.43;50.29;100104.06;10363086;28;20049;-63
2024/04/06 08:13:48;;;;;;;4.18;0.70;;;;;;;18.67;51.37;100101.19;10377650;28;20682;-63
2024/04/06 08:18:49;;;;;;;0.90;0.40;;;;;;;18.83;49.33;100097.53;10415465;28;20048;-62
2024/04/06 08:23:49;;;;;;;2.95;0.90;;;;;;;18.73;48.70;100095.09;10408603;28;20046;-63
2024/04/06 08:28:51;;;;;;;1.08;0.47;;;;;;;18.92;48.89;100087.56;10405121;28;20056;-62
2024/04/06 08:33:51;;;;;;;1.08;0.40;;;;;;;19.15;47.23;100082.09;10407482;28;20132;-62
2024/04/06 08:38:52;;;;;;;3.20;0.32;;;;;;;19.28;49.17;100081.47;10410991;28;20053;-63
2024/04/06 08:43:54;;;;;;;2.45;0.80;;;;;;;19.56;45.90;100070.88;10417310;28;20550;-62
2024/04/06 08:48:55;;;;;;;3.07;0.77;;;;;;;19.70;46.53;100058.38;10404952;28;20128;-62
2024/04/06 08:53:56;;;;;;;2.15;0.50;;;;;;;19.80;44.43;100068.09;10401981;28;20121;-62
2024/04/06 08:58:56;;;;;;;0.93;0.47;;;;;;;20.05;44.21;100074.00;10388205;28;20047;-62
2024/04/06 09:03:57;;;;;;;1.02;0.52;;;;;;;20.20;43.56;100057.75;10383666;28;20037;-62
2024/04/06 09:08:57;;;;;;;3.17;0.65;;;;;;;20.40;43.52;100058.81;10406803;28;20069;-63
2024/04/06 09:14:02;;;;;;;1.92;0.50;;;;;;;20.71;43.20;100044.13;10406849;28;20156;-62
2024/04/06 09:19:03;;;;;;;4.63;0.60;;;;;;;20.85;42.21;100015.31;10400450;28;20131;-62
2024/04/06 09:24:04;;;;;;;1.35;0.40;;;;;;;21.21;41.37;100027.00;10405437;28;20058;-62
2024/04/06 09:29:04;;;;;;;1.40;0.40;;;;;;;21.46;39.49;100028.19;10410242;28;20057;-62
2024/04/06 09:34:05;;;;;;;1.90;0.50;;;;;;;21.70;39.69;100032.28;10409280;28;20044;-63
2024/04/06 09:39:06;;;;;;;1.50;0.57;;;;;;;21.99;38.26;100032.19;10394437;28;20052;-62
2024/04/06 09:44:07;;;;;;;0.95;0.28;;;;;;;22.21;37.66;100022.88;10408927;28;20121;-65
2024/04/06 09:49:08;;;;;;;2.45;0.45;;;;;;;22.36;37.22;100019.19;10413720;28;20141;-62
2024/04/06 09:54:08;;;;;;;2.65;0.50;;;;;;;22.85;37.87;100022.50;10408778;28;20583;-64
2024/04/06 09:59:22;;;;;;;1.02;0.40;;;;;;;23.50;34.60;100019.91;10408640;28;20049;-64
2024/04/06 10:04:30;;;;;;;1.98;0.43;;;;;;;23.89;33.28;100015.41;10426654;28;20068;-64
2024/04/06 10:09:31;;;;;;;1.40;0.52;;;;;;;24.11;34.44;100025.94;10402650;28;20127;-64
2024/04/06 10:14:44;;;;;;;1.42;0.22;;;;;;;24.40;34.08;100029.94;10408639;28;20205;-64
2024/04/06 10:19:45;;;;;;;0.95;0.30;;;;;;;24.90;33.54;100029.16;10402361;28;20072;-64
2024/04/06 10:24:54;;;;;;;1.00;0.40;;;;;;;25.31;31.06;100003.22;10407747;28;20223;-63
2024/04/06 10:29:56;;;;;;;1.42;0.40;;;;;;;25.45;33.11;100027.59;10410042;28;20124;-64
2024/04/06 10:35:00;;;;;;;1.38;0.43;;;;;;;25.89;31.93;100017.38;10409760;28;20802;-64
2024/04/06 10:40:00;;;;;;;2.30;0.40;;;;;;;26.03;32.25;100010.72;10407188;28;20143;-65
2024/04/06 10:45:01;;;;;;;1.05;0.40;;;;;;;26.09;31.01;100007.06;10415900;28;20067;-64
2024/04/06 10:50:02;;;;;;;1.52;0.30;;;;;;;26.15;30.49;100001.75;10407232;28;20056;-64
2024/04/06 10:55:10;;;;;;;2.10;0.50;;;;;;;25.95;31.52;100000.09;10426057;28;20115;-64
2024/04/06 11:00:12;;;;;;;4.22;1.52;;;;;;;26.39;30.94;100003.47;10405374;28;20161;-68
2024/04/06 11:05:13;;;;;;;1.33;0.60;;;;;;;27.39;31.09;99989.97;10411333;28;20136;-63
2024/04/06 11:10:13;;;;;;;1.70;0.50;;;;;;;28.15;28.25;99981.63;10402007;28;20048;-65
2024/04/06 11:15:14;;;;;;;0.85;0.40;;;;;;;28.46;28.13;99965.72;10402716;28;20705;-64
2024/04/06 11:20:16;;;;;;;1.88;0.75;;;;;;;28.01;27.82;99958.38;10423789;28;20436;-64
2024/04/06 11:25:19;;;;;;;0.87;0.60;;;;;;;27.19;29.90;99926.66;10415660;28;20128;-63
2024/04/06 11:30:20;;;;;;;1.80;0.57;;;;;;;26.90;28.82;99938.38;10416516;28;20148;-64
2024/04/06 11:35:21;;;;;;;0.82;0.40;;;;;;;28.09;27.85;99944.31;10408001;28;20621;-63
2024/04/06 11:40:22;;;;;;;1.20;0.30;;;;;;;29.43;25.72;99943.56;10414746;28;20156;-64
2024/04/06 11:45:22;;;;;;;2.08;0.65;;;;;;;30.88;24.97;99949.25;10392206;28;20635;-65
2024/04/06 11:50:23;;;;;;;1.10;0.50;;;;;;;31.62;24.28;99941.97;10371597;28;20094;-65
2024/04/06 11:55:23;;;;;;;1.50;0.65;;;;;;;31.62;24.74;99936.47;10408676;28;20068;-63
2024/04/06 12:00:24;;;;;;;1.37;0.40;;;;;;;32.15;23.41;99938.22;10407449;28;20049;-67
2024/04/06 12:05:24;;;;;;;0.97;0.47;;;;;;;32.26;23.59;99915.06;10408193;28;20053;-64
2024/04/06 12:10:25;;;;;;;1.43;0.70;;;;;;;32.56;22.61;99914.22;10395785;28;20049;-64
2024/04/06 12:15:25;;;;;;;1.10;0.30;;;;;;;33.24;22.17;99920.38;10413682;28;20214;-63
2024/04/06 12:20:26;;;;;;;3.73;0.63;;;;;;;33.21;20.95;99910.75;10409757;28;20050;-65
2024/04/06 12:25:26;;;;;;;1.50;0.23;;;;;;;34.27;21.39;99911.47;10415150;28;20131;-64
2024/04/06 12:30:27;;;;;;;2.30;0.40;;;;;;;35.68;18.52;99902.91;10415613;28;20082;-68
2024/04/06 12:35:27;;;;;;;1.57;0.47;;;;;;;36.95;17.38;99901.03;10408517;28;20108;-65
2024/04/06 12:40:27;;;;;;;1.57;0.30;;;;;;;38.61;16.34;99892.41;10427577;28;20053;-65
2024/04/06 12:45:28;;;;;;;;;;;;;;;39.21;15.84;99882.66;10413775;28;20183;-65
2024/04/06 12:50:28;;;;;;;2.23;0.53;;;;;;;37.25;17.37;99876.56;10405561;28;19928;-65
2024/04/06 12:55:29;;;;;;;1.63;0.50;;;;;;;34.08;20.13;99872.66;10417075;28;20064;-65
2024/04/06 13:00:29;;;;;;;1.55;0.50;;;;;;;32.77;21.76;99857.16;10408616;28;20593;-66
2024/04/06 13:05:33;;;;;;;1.70;0.60;;;;;;;31.78;21.12;99873.19;10404904;28;20052;-66
2024/04/06 13:10:33;;;;;;;2.05;0.50;;;;;;;30.92;21.99;99862.47;10402051;28;20398;-63
2024/04/06 13:15:34;;;;;;;1.03;0.40;;;;;;;30.40;22.54;99833.06;10392865;28;20072;-64
2024/04/06 13:20:34;;;;;;;2.13;0.40;;;;;;;30.67;22.33;99850.28;10412734;28;20088;-63
2024/04/06 13:25:35;;;;;;;1.73;0.50;;;;;;;30.97;23.12;99834.19;10416706;28;20638;-63
2024/04/06 13:30:36;;;;;;;1.37;0.40;;;;;;;30.56;21.81;99834.00;10412980;28;20037;-63
2024/04/06 13:35:37;;;;;;;;;;;;;;;30.51;22.90;99829.31;10411596;28;20713;-64
2024/04/06 13:40:38;;;;;;;1.90;0.37;;;;;;;30.48;22.87;99829.88;10411081;28;20034;-63
2024/04/06 13:45:38;;;;;;;0.83;0.30;;;;;;;30.16;22.35;99811.50;10412961;28;20046;-63
2024/04/06 13:50:40;;;;;;;1.58;0.40;;;;;;;29.86;22.12;99785.53;10406520;28;20049;-63
2024/04/06 13:55:40;;;;;;;;;;;;;;;29.90;22.76;99796.78;10378826;28;20183;-63
2024/04/06 14:00:41;;;;;;;3.10;0.50;;;;;;;29.78;22.54;99777.72;10404633;28;20540;-63
2024/04/06 14:05:42;;;;;;;3.20;0.60;;;;;;;29.72;22.67;99776.84;10408930;28;20111;-63
2024/04/06 14:10:42;;;;;;;1.25;0.30;;;;;;;29.65;22.85;99783.66;10383189;28;20044;-63
2024/04/06 14:15:43;;;;;;;1.17;0.47;;;;;;;29.45;23.45;99779.66;10408794;28;20052;-63
2024/04/06 14:20:43;;;;;;;1.90;0.55;;;;;;;29.30;23.68;99763.06;10406360;28;20048;-64
2024/04/06 14:25:45;;;;;;;1.10;0.43;;;;;;;29.24;23.36;99771.22;10407641;28;20049;-64
2024/04/06 14:30:46;;;;;;;1.88;1.00;;;;;;;29.20;24.19;99750.91;10411248;28;20374;-64
2024/04/06 14:35:47;;;;;;;2.42;0.60;;;;;;;29.01;22.94;99757.81;10397446;28;20214;-62
2024/04/06 14:40:47;;;;;;;1.50;0.85;;;;;;;28.82;22.56;99755.41;10407134;28;20100;-63
2024/04/06 14:45:48;;;;;;;2.92;0.65;;;;;;;28.60;22.59;99746.38;10409599;28;20052;-63
2024/04/06 14:50:48;;;;;;;1.10;0.35;;;;;;;28.38;21.97;99744.47;10405001;28;20048;-64
2024/04/06 14:55:49;;;;;;;1.33;0.40;;;;;;;28.34;22.92;99746.03;10406228;28;20748;-63
2024/04/06 15:00:50;;;;;;;1.63;0.50;;;;;;;28.19;22.23;99742.03;10414879;28;20383;-62
2024/04/06 15:05:52;;;;;;;1.05;0.28;;;;;;;28.02;21.55;99747.53;10408600;28;20132;-63
2024/04/06 15:10:52;;;;;;;1.00;0.30;;;;;;;27.89;21.45;99747.84;10408050;28;20148;-62
2024/04/06 15:15:54;;;;;;;2.78;0.40;;;;;;;27.77;21.77;99734.25;10410262;28;20309;-64
2024/04/06 15:20:55;;;;;;;2.85;0.82;;;;;;;27.67;21.84;99754.06;10427341;28;20131;-62
2024/04/06 15:25:55;;;;;;;1.77;0.50;;;;;;;27.47;22.45;99751.84;10431497;28;20175;-62
2024/04/06 15:30:56;;;;;;;0.90;0.30;;;;;;;27.56;22.26;99771.38;10413194;28;20109;-64
2024/04/06 15:35:56;;;;;;;0.80;0.40;;;;;;;27.46;22.24;99754.81;10410249;28;20068;-62
2024/04/06 15:40:57;;;;;;;1.70;0.70;;;;;;;27.37;22.80;99740.75;10408253;28;20041;-62
2024/04/06 15:45:58;;;;;;;1.15;0.43;;;;;;;27.30;22.97;99742.75;10380707;28;20056;-64
2024/04/06 15:50:58;;;;;;;1.13;0.70;;;;;;;27.26;23.84;99739.72;10407334;28;20152;-63
2024/04/06 15:55:59;;;;;;;1.65;0.47;;;;;;;27.14;23.71;99726.13;10399587;28;20408;-64
2024/04/06 16:01:00;;;;;;;1.55;0.60;;;;;;;26.94;23.49;99731.19;10365142;28;20064;-67
2024/04/06 16:06:00;;;;;;;1.52;0.60;;;;;;;26.83;25.04;99723.88;10406646;28;20049;-70
2024/04/06 16:11:01;;;;;;;2.20;0.75;;;;;;;26.67;24.85;99723.56;10407339;28;20057;-69
2024/04/06 16:16:03;;;;;;;1.90;0.70;;;;;;;26.67;24.73;99730.94;10411254;28;20629;-68
2024/04/06 16:21:04;;;;;;;0.97;0.60;;;;;;;26.60;24.33;99740.06;10381915;28;20236;-68
2024/04/06 16:26:04;;;;;;;1.20;0.63;;;;;;;26.54;24.60;99738.31;10399195;28;21020;-68
2024/04/06 16:31:05;;;;;;;1.25;0.70;;;;;;;26.54;25.29;99742.91;10409413;28;20044;-67
2024/04/06 16:36:06;;;;;;;1.42;0.85;;;;;;;26.51;25.30;99748.88;10397274;28;20119;-67
2024/04/06 16:41:06;;;;;;;5.88;1.20;;;;;;;26.49;24.96;99751.84;10384780;28;20308;-66
2024/04/06 16:46:07;;;;;;;2.25;0.98;;;;;;;26.49;25.91;99753.75;10391014;28;20055;-67
2024/04/06 16:51:09;;;;;;;1.98;0.90;;;;;;;26.40;24.50;99748.66;10385751;28;20447;-67
2024/04/06 16:56:09;;;;;;;1.77;0.80;;;;;;;26.25;24.74;99734.69;10371821;28;20148;-67
2024/04/06 17:01:10;;;;;;;1.98;1.08;;;;;;;26.17;24.96;99737.78;10363132;28;20331;-67
2024/04/06 17:06:10;;;;;;;3.90;1.67;;;;;;;26.06;25.28;99743.00;10376091;28;20057;-66
2024/04/06 17:11:11;;;;;;;1.27;1.10;;;;;;;25.93;25.32;99743.22;10386827;28;20405;-70
2024/04/06 17:16:12;;;;;;;2.33;2.13;;;;;;;25.84;25.98;99739.19;10391556;28;20302;-66
2024/04/06 17:21:12;;;;;;;3.25;1.95;;;;;;;25.69;26.32;99731.47;10403782;28;20054;-68
2024/04/06 17:26:13;;;;;;;2.33;1.65;;;;;;;25.61;26.91;99732.63;10408169;28;20056;-66
2024/04/06 17:31:14;;;;;;;3.08;1.48;;;;;;;25.54;27.92;99737.38;10401247;28;20059;-66
2024/04/06 17:36:14;;;;;;;2.83;1.30;;;;;;;25.45;29.08;99736.06;10408730;28;20128;-65
2024/04/06 17:41:15;;;;;;;1.70;1.15;;;;;;;25.32;28.43;99735.19;10378060;28;20053;-66
2024/04/06 17:46:15;;;;;;;2.47;1.35;;;;;;;25.20;27.51;99740.59;10411235;28;20072;-68
2024/04/06 17:51:16;;;;;;;3.92;2.08;;;;;;;25.11;28.20;99741.97;10388303;28;20052;-67
2024/04/06 17:56:17;;;;;;;11.15;6.82;;;;;;;25.02;28.45;99738.75;10384584;28;20045;-66
2024/04/06 18:01:18;;;;;;;4.82;2.80;;;;;;;24.90;28.74;99737.88;10400803;28;20602;-68
2024/04/06 18:06:19;;;;;;;6.22;4.18;;;;;;;24.83;28.98;99745.28;10394810;28;20056;-66
2024/04/06 18:11:20;;;;;;;7.53;5.70;;;;;;;24.72;31.14;99757.78;10408529;28;20076;-68
2024/04/06 18:16:21;;;;;;;8.57;5.10;;;;;;;24.42;31.63;99735.94;10406491;28;20498;-66
2024/04/06 18:21:23;;;;;;;11.85;4.28;;;;;;;24.31;34.00;99743.81;10407089;28;20140;-69
2024/04/06 18:26:23;;;;;;;4.68;2.95;;;;;;;24.35;33.17;99774.13;10411472;28;20172;-68
2024/04/06 18:31:24;;;;;;;6.88;3.72;;;;;;;24.10;34.06;99766.00;10407788;28;20052;-74
2024/04/06 18:36:24;;;;;;;7.90;4.15;;;;;;;23.96;35.25;99768.00;10386759;28;20171;-66
2024/04/06 18:41:26;;;;;;;5.55;4.47;;;;;;;24.00;37.67;99780.94;10397388;28;20892;-69
2024/04/06 18:46:26;;;;;;;6.45;4.78;;;;;;;23.86;37.60;99787.53;10400451;28;20148;-67
2024/04/06 18:51:27;;;;;;;7.40;5.20;;;;;;;23.69;36.78;99802.69;10405798;28;20055;-66
2024/04/06 18:56:27;;;;;;;6.43;5.65;;;;;;;23.42;37.21;99773.84;10390709;28;20303;-69
2024/04/06 19:01:28;;;;;;;7.13;6.43;;;;;;;23.50;37.25;99809.94;10420989;28;20049;-66
2024/04/06 19:06:28;;;;;;;7.18;6.38;;;;;;;23.36;38.51;99801.03;10413346;28;20075;-69
2024/04/06 19:11:29;;;;;;;6.20;5.47;;;;;;;23.27;37.21;99808.63;10415690;28;20174;-69
2024/04/06 19:16:29;;;;;;;6.10;5.50;;;;;;;23.12;37.09;99795.34;10412269;28;20638;-67
2024/04/06 19:21:30;;;;;;;7.43;5.45;;;;;;;23.08;36.46;99804.94;10418608;28;20060;-68
2024/04/06 19:26:30;;;;;;;5.32;4.63;;;;;;;22.98;37.95;99793.72;10407768;28;20048;-67
2024/04/06 19:31:31;;;;;;;6.55;5.45;;;;;;;22.86;37.90;99788.94;10406037;28;20114;-68
2024/04/06 19:36:31;;;;;;;7.13;6.13;;;;;;;22.75;37.82;99789.63;10412234;28;20050;-68
2024/04/06 19:41:32;;;;;;;5.57;5.00;;;;;;;22.67;39.28;99787.16;10405617;28;20037;-67
2024/04/06 19:46:32;;;;;;;6.68;5.30;;;;;;;22.47;38.71;99769.06;10393522;28;20064;-68
2024/04/06 19:51:33;;;;;;;7.47;6.63;;;;;;;22.52;38.98;99788.25;10410695;28;20053;-68
2024/04/06 19:56:33;;;;;;;6.00;5.40;;;;;;;22.43;40.00;99794.97;10395322;28;20060;-67
2024/04/06 20:01:34;;;;;;;7.55;6.00;;;;;;;22.35;38.79;99784.31;10373421;28;20057;-67
2024/04/06 20:06:34;;;;;;;6.60;5.40;;;;;;;22.25;39.44;99776.63;10409424;28;20114;-72
2024/04/06 20:11:35;;;;;;;5.68;5.18;;;;;;;22.01;40.55;99741.00;10418698;28;20064;-71
2024/04/06 20:16:36;;;;;;;7.93;5.07;;;;;;;21.98;40.80;99754.13;10404746;28;20161;-68
2024/04/06 20:21:37;;;;;;;7.13;6.03;;;;;;;22.09;41.57;99777.88;10398460;28;20139;-70
2024/04/06 20:26:37;;;;;;;7.85;6.05;;;;;;;22.04;40.73;99777.69;10408796;28;20045;-64
2024/04/06 20:31:38;;;;;;;7.10;5.65;;;;;;;21.97;41.33;99776.88;10405167;28;20041;-63
2024/04/06 20:36:38;;;;;;;7.50;5.53;;;;;;;21.92;41.84;99769.38;10417816;28;20655;-65
2024/04/06 20:41:38;;;;;;;7.25;5.38;;;;;;;21.70;40.50;99744.38;10379129;28;20041;-69
2024/04/06 20:46:39;;;;;;;7.45;5.68;;;;;;;21.82;40.78;99774.38;10382122;28;20052;-65
2024/04/06 20:51:39;;;;;;;5.93;5.28;;;;;;;21.79;41.00;99770.19;10394149;28;20145;-65
2024/04/06 20:56:40;;;;;;;8.93;5.28;;;;;;;21.71;41.62;99770.41;10406131;28;20711;-64
2024/04/06 21:01:40;;;;;;;5.70;4.93;;;;;;;21.67;41.56;99767.28;10373599;28;20048;-65
2024/04/06 21:06:41;;;;;;;5.18;4.65;;;;;;;21.63;41.78;99771.47;10398992;28;20884;-64
2024/04/06 21:11:42;;;;;;;4.07;3.42;;;;;;;21.63;41.51;99776.88;10403199;28;20128;-65
2024/04/06 21:16:43;;;;;;;5.13;3.22;;;;;;;21.61;42.10;99776.22;10408496;28;20100;-64
2024/04/06 21:21:44;;;;;;;4.13;3.53;;;;;;;21.58;41.49;99768.53;10427337;28;20143;-64
2024/04/06 21:26:44;;;;;;;4.25;3.08;;;;;;;21.56;42.15;99778.75;10409397;28;20067;-65
2024/04/06 21:31:45;;;;;;;4.97;3.83;;;;;;;21.53;42.07;99773.75;10408348;28;20410;-64
2024/04/06 21:36:45;;;;;;;5.47;4.55;;;;;;;21.48;42.44;99777.03;10405658;28;20048;-64
2024/04/06 21:41:46;;;;;;;4.90;4.50;;;;;;;21.41;42.49;99772.63;10378605;28;20053;-64
2024/04/06 21:46:46;;;;;;;6.15;3.20;;;;;;;21.36;42.21;99784.09;10421068;28;20056;-67
2024/04/06 21:51:47;;;;;;;4.78;3.40;;;;;;;21.05;42.56;99734.06;10409866;28;20078;-64
2024/04/06 21:56:47;;;;;;;4.65;3.50;;;;;;;21.21;42.91;99759.91;10405585;28;21221;-65
2024/04/06 22:01:48;;;;;;;3.72;3.05;;;;;;;21.22;43.16;99768.88;10408847;28;20052;-65
2024/04/06 22:06:48;;;;;;;6.72;3.80;;;;;;;21.17;42.72;99764.91;10407526;28;20080;-65
2024/04/06 22:11:50;;;;;;;4.43;3.08;;;;;;;21.12;43.09;99762.00;10405784;28;20072;-64
2024/04/06 22:16:50;;;;;;;3.65;3.22;;;;;;;21.02;43.06;99767.78;10412161;28;21512;-64
2024/04/06 22:21:53;;;;;;;4.10;2.97;;;;;;;21.00;43.77;99769.88;10409498;28;20048;-67
2024/04/06 22:26:53;;;;;;;4.83;3.07;;;;;;;20.94;44.17;99764.41;10404556;28;20713;-64
2024/04/06 22:31:54;;;;;;;3.85;3.50;;;;;;;20.87;44.12;99771.66;10403257;28;20052;-68
2024/04/06 22:36:54;;;;;;;3.53;2.95;;;;;;;20.77;45.01;99767.47;10402690;28;20048;-63
2024/04/06 22:41:55;;;;;;;5.18;3.58;;;;;;;20.70;45.09;99760.38;10385898;28;20606;-64
2024/04/06 22:46:55;;;;;;;5.25;3.00;;;;;;;20.58;44.85;99743.88;10339832;28;20069;-65
2024/04/06 22:51:56;;;;;;;3.67;3.28;;;;;;;20.55;45.79;99764.03;10404720;28;21602;-64
2024/04/06 22:56:56;;;;;;;3.80;3.28;;;;;;;20.44;45.60;99753.78;10395268;28;20055;-66
2024/04/06 23:01:57;;;;;;;4.65;3.90;;;;;;;20.37;46.14;99740.25;10382901;28;20032;-65
2024/04/06 23:06:58;;;;;;;4.90;3.90;;;;;;;20.28;46.13;99736.03;10412338;28;20048;-65
2024/04/06 23:11:58;;;;;;;6.00;3.80;;;;;;;20.24;46.34;99742.88;10406234;28;20186;-65